Terminal Aerodrome Forecast
Issued by NWS Wakefield, VA

Home | Current Version | Previous Version | Text Only | Print | Product List | Glossary On
Versions: 1 2 3 4 5 6 7 8 9 10 11 12 13 14 15 16 17 18 19 20 21 22
000
FTUS41 KAKQ 010900 AAA
TAFECG
TAF AMD
KECG 010931Z 0110/0206 VRB06KT P6SM SKC
      TEMPO 0110/0112 5SM BR FEW002
     FM011300 36008KT P6SM SCT025
     FM011600 02008KT P6SM BKN030 BKN090=

USA.gov is the U.S. government's official web portal to all federal, state and local government web resources and services.